SCEL/SCL METAR and TAF weather

Enter ICAO airport designator
Station Type Date Time Source
SCEL METAR 2022/01/26 08:00 UTC NOAA

SCEL 260800Z 16008KT CAVOK 13/11 Q1013 NOSIG


Station Type Date Time Source
SCEL Decoded METAR 2022/01/26 08:00 UTC NOAA

Pudahuel, Chile (SCEL) 33-23S 070-47W 476M
Jan 26, 2022 - 03:00 AM EST / 2022.01.26 0800 UTC
Wind: from the SSE (160 degrees) at 9 MPH (8 KT):0
Visibility: greater than 7 mile(s):0
Temperature: 55 F (13 C)
Dew Point: 51 F (11 C)
Relative Humidity: 87%
Pressure (altimeter): 29.91 in. Hg (1013 hPa)
ob: SCEL 260800Z 16008KT CAVOK 13/11 Q1013 NOSIG
cycle: 8

Station Type Date Time Source
SCEL TAF 2022/01/26 06:03 UTC NOAA

TAF SCEL 260400Z 2606/2706 16004KT CAVOK TX30/2619Z TN15/2610Z
BECMG 2614/2616 18010KT
BECMG 2619/2621 21016KT
BECMG 2701/2703 16004KT

Example: see airport list